sensor_id;sensor_type;location;lat;lon;timestamp;temperature;humidity
45339;DHT22;31071;51.478;5.710;2022-07-10T00:00:32;15.40;99.90
45339;DHT22;31071;51.478;5.710;2022-07-10T00:03:05;15.50;99.90
45339;DHT22;31071;51.478;5.710;2022-07-10T00:05:32;15.40;99.90
45339;DHT22;31071;51.478;5.710;2022-07-10T00:07:59;15.30;99.90
45339;DHT22;31071;51.478;5.710;2022-07-10T00:10:25;15.40;99.90
45339;DHT22;31071;51.478;5.710;2022-07-10T00:12:51;15.40;99.90
45339;DHT22;31071;51.478;5.710;2022-07-10T00:15:18;15.30;99.90
45339;DHT22;31071;51.478;5.710;2022-07-10T00:17:44;15.20;99.90
45339;DHT22;31071;51.478;5.710;2022-07-10T00:20:13;15.20;99.90
45339;DHT22;31071;51.478;5.710;2022-07-10T00:22:39;15.20;99.90
45339;DHT22;31071;51.478;5.710;2022-07-10T00:25:06;15.20;99.90
45339;DHT22;31071;51.478;5.710;2022-07-10T00:27:31;15.30;99.90
45339;DHT22;31071;51.478;5.710;2022-07-10T00:29:57;15.20;99.90
45339;DHT22;31071;51.478;5.710;2022-07-10T00:32:23;15.20;99.90
45339;DHT22;31071;51.478;5.710;2022-07-10T00:34:49;15.20;99.90
45339;DHT22;31071;51.478;5.710;2022-07-10T00:37:14;15.20;99.90
45339;DHT22;31071;51.478;5.710;2022-07-10T00:39:41;15.10;99.90
45339;DHT22;31071;51.478;5.710;2022-07-10T00:42:11;15.10;99.90
45339;DHT22;31071;51.478;5.710;2022-07-10T00:44:39;15.00;99.90
45339;DHT22;31071;51.478;5.710;2022-07-10T00:47:06;15.10;99.90
45339;DHT22;31071;51.478;5.710;2022-07-10T00:49:32;15.00;99.90
45339;DHT22;31071;51.478;5.710;2022-07-10T00:52:00;14.90;99.90
45339;DHT22;31071;51.478;5.710;2022-07-10T00:54:27;14.80;99.90
45339;DHT22;31071;51.478;5.710;2022-07-10T00:56:54;14.90;99.90
45339;DHT22;31071;51.478;5.710;2022-07-10T00:59:21;15.00;99.90
45339;DHT22;31071;51.478;5.710;2022-07-10T01:01:47;14.80;99.90
45339;DHT22;31071;51.478;5.710;2022-07-10T01:04:13;14.80;99.90
45339;DHT22;31071;51.478;5.710;2022-07-10T01:06:39;14.80;99.90
45339;DHT22;31071;51.478;5.710;2022-07-10T01:09:04;14.70;99.90
45339;DHT22;31071;51.478;5.710;2022-07-10T01:11:33;14.80;99.90
45339;DHT22;31071;51.478;5.710;2022-07-10T01:13:59;14.70;99.90
45339;DHT22;31071;51.478;5.710;2022-07-10T01:16:25;14.70;99.90
45339;DHT22;31071;51.478;5.710;2022-07-10T01:18:51;14.70;99.90
45339;DHT22;31071;51.478;5.710;2022-07-10T01:21:28;14.70;99.90
45339;DHT22;31071;51.478;5.710;2022-07-10T01:23:54;14.80;99.90
45339;DHT22;31071;51.478;5.710;2022-07-10T01:26:21;14.70;99.90
45339;DHT22;31071;51.478;5.710;2022-07-10T01:28:54;14.50;99.90
45339;DHT22;31071;51.478;5.710;2022-07-10T01:31:24;14.40;99.90
45339;DHT22;31071;51.478;5.710;2022-07-10T01:33:50;14.30;99.90
45339;DHT22;31071;51.478;5.710;2022-07-10T01:36:16;14.20;99.90
45339;DHT22;31071;51.478;5.710;2022-07-10T01:38:43;14.20;99.90
45339;DHT22;31071;51.478;5.710;2022-07-10T01:41:08;14.10;99.90
45339;DHT22;31071;51.478;5.710;2022-07-10T01:43:37;14.20;99.90
45339;DHT22;31071;51.478;5.710;2022-07-10T01:46:03;14.20;99.90
45339;DHT22;31071;51.478;5.710;2022-07-10T01:48:30;14.30;99.90
45339;DHT22;31071;51.478;5.710;2022-07-10T01:50:56;14.20;99.90
45339;DHT22;31071;51.478;5.710;2022-07-10T01:53:21;14.20;99.90
45339;DHT22;31071;51.478;5.710;2022-07-10T01:55:47;14.20;99.90
45339;DHT22;31071;51.478;5.710;2022-07-10T01:58:12;14.30;99.90
45339;DHT22;31071;51.478;5.710;2022-07-10T02:00:38;14.30;99.90
45339;DHT22;31071;51.478;5.710;2022-07-10T02:03:03;14.40;99.90
45339;DHT22;31071;51.478;5.710;2022-07-10T02:05:48;14.50;99.90
45339;DHT22;31071;51.478;5.710;2022-07-10T02:08:14;14.50;99.90
45339;DHT22;31071;51.478;5.710;2022-07-10T02:10:40;14.40;99.90
45339;DHT22;31071;51.478;5.710;2022-07-10T02:13:05;14.50;99.90
45339;DHT22;31071;51.478;5.710;2022-07-10T02:15:31;14.50;99.90
45339;DHT22;31071;51.478;5.710;2022-07-10T02:17:56;14.50;99.90
45339;DHT22;31071;51.478;5.710;2022-07-10T02:20:22;14.40;99.90
45339;DHT22;31071;51.478;5.710;2022-07-10T02:22:47;14.40;99.90
45339;DHT22;31071;51.478;5.710;2022-07-10T02:25:13;14.30;99.90
45339;DHT22;31071;51.478;5.710;2022-07-10T02:27:38;14.40;99.90
45339;DHT22;31071;51.478;5.710;2022-07-10T02:30:06;14.40;99.90
45339;DHT22;31071;51.478;5.710;2022-07-10T02:32:32;14.40;99.90
45339;DHT22;31071;51.478;5.710;2022-07-10T02:34:57;14.50;99.90
45339;DHT22;31071;51.478;5.710;2022-07-10T02:37:23;14.40;99.90
45339;DHT22;31071;51.478;5.710;2022-07-10T02:39:56;14.50;99.90
45339;DHT22;31071;51.478;5.710;2022-07-10T02:42:22;14.50;99.90
45339;DHT22;31071;51.478;5.710;2022-07-10T02:44:47;14.50;99.90
45339;DHT22;31071;51.478;5.710;2022-07-10T02:47:13;14.50;99.90
45339;DHT22;31071;51.478;5.710;2022-07-10T02:49:39;14.50;99.90
45339;DHT22;31071;51.478;5.710;2022-07-10T02:52:05;14.60;99.90
45339;DHT22;31071;51.478;5.710;2022-07-10T02:54:30;14.50;99.90
45339;DHT22;31071;51.478;5.710;2022-07-10T02:56:56;14.60;99.90
45339;DHT22;31071;51.478;5.710;2022-07-10T02:59:21;14.50;99.90
45339;DHT22;31071;51.478;5.710;2022-07-10T03:01:47;14.50;99.90
45339;DHT22;31071;51.478;5.710;2022-07-10T03:04:12;14.60;99.90
45339;DHT22;31071;51.478;5.710;2022-07-10T03:06:38;14.60;99.90
45339;DHT22;31071;51.478;5.710;2022-07-10T03:09:03;14.60;99.90
45339;DHT22;31071;51.478;5.710;2022-07-10T03:11:29;14.60;99.90
45339;DHT22;31071;51.478;5.710;2022-07-10T03:13:54;14.60;99.90
45339;DHT22;31071;51.478;5.710;2022-07-10T03:16:20;14.60;99.90
45339;DHT22;31071;51.478;5.710;2022-07-10T03:19:11;14.50;99.90
45339;DHT22;31071;51.478;5.710;2022-07-10T03:21:38;14.50;99.90
45339;DHT22;31071;51.478;5.710;2022-07-10T03:24:03;14.50;99.90
45339;DHT22;31071;51.478;5.710;2022-07-10T03:26:29;14.50;99.90
45339;DHT22;31071;51.478;5.710;2022-07-10T03:28:55;14.50;99.90
45339;DHT22;31071;51.478;5.710;2022-07-10T03:31:21;14.40;99.90
45339;DHT22;31071;51.478;5.710;2022-07-10T03:33:46;14.30;99.90
45339;DHT22;31071;51.478;5.710;2022-07-10T03:36:12;14.20;99.90
45339;DHT22;31071;51.478;5.710;2022-07-10T03:38:38;14.20;99.90
45339;DHT22;31071;51.478;5.710;2022-07-10T03:41:04;14.10;99.90
45339;DHT22;31071;51.478;5.710;2022-07-10T03:43:30;14.20;99.90
45339;DHT22;31071;51.478;5.710;2022-07-10T03:45:57;14.20;99.90
45339;DHT22;31071;51.478;5.710;2022-07-10T03:48:22;14.30;99.90
45339;DHT22;31071;51.478;5.710;2022-07-10T03:50:52;14.20;99.90
45339;DHT22;31071;51.478;5.710;2022-07-10T03:53:18;14.30;99.90
45339;DHT22;31071;51.478;5.710;2022-07-10T03:55:44;14.30;99.90
45339;DHT22;31071;51.478;5.710;2022-07-10T03:58:10;14.30;99.90
45339;DHT22;31071;51.478;5.710;2022-07-10T04:00:35;14.30;99.90
45339;DHT22;31071;51.478;5.710;2022-07-10T04:03:05;14.30;99.90
45339;DHT22;31071;51.478;5.710;2022-07-10T04:05:31;14.30;99.90
45339;DHT22;31071;51.478;5.710;2022-07-10T04:07:58;14.30;99.90
45339;DHT22;31071;51.478;5.710;2022-07-10T04:10:25;14.30;99.90
45339;DHT22;31071;51.478;5.710;2022-07-10T04:12:50;14.30;99.90
45339;DHT22;31071;51.478;5.710;2022-07-10T04:15:16;14.40;99.90
45339;DHT22;31071;51.478;5.710;2022-07-10T04:17:42;14.40;99.90
45339;DHT22;31071;51.478;5.710;2022-07-10T04:20:08;14.40;99.90
45339;DHT22;31071;51.478;5.710;2022-07-10T04:22:34;14.50;99.90
45339;DHT22;31071;51.478;5.710;2022-07-10T04:25:00;14.50;99.90
45339;DHT22;31071;51.478;5.710;2022-07-10T04:27:25;14.50;99.90
45339;DHT22;31071;51.478;5.710;2022-07-10T04:29:52;14.50;99.90
45339;DHT22;31071;51.478;5.710;2022-07-10T04:32:18;14.50;99.90
45339;DHT22;31071;51.478;5.710;2022-07-10T04:34:43;14.40;99.90
45339;DHT22;31071;51.478;5.710;2022-07-10T04:37:09;14.40;99.90
45339;DHT22;31071;51.478;5.710;2022-07-10T04:39:38;14.40;99.90
45339;DHT22;31071;51.478;5.710;2022-07-10T04:42:07;14.40;99.90
45339;DHT22;31071;51.478;5.710;2022-07-10T04:44:34;14.40;99.90
45339;DHT22;31071;51.478;5.710;2022-07-10T04:47:00;14.50;99.90
45339;DHT22;31071;51.478;5.710;2022-07-10T04:49:26;14.50;99.90
45339;DHT22;31071;51.478;5.710;2022-07-10T04:51:51;14.60;99.90
45339;DHT22;31071;51.478;5.710;2022-07-10T04:54:17;14.60;99.90
45339;DHT22;31071;51.478;5.710;2022-07-10T04:56:43;14.60;99.90
45339;DHT22;31071;51.478;5.710;2022-07-10T04:59:09;14.60;99.90
45339;DHT22;31071;51.478;5.710;2022-07-10T05:01:36;14.60;99.90
45339;DHT22;31071;51.478;5.710;2022-07-10T05:04:03;14.70;99.90
45339;DHT22;31071;51.478;5.710;2022-07-10T05:06:28;14.70;99.90
45339;DHT22;31071;51.478;5.710;2022-07-10T05:08:54;14.80;99.90
45339;DHT22;31071;51.478;5.710;2022-07-10T05:11:21;14.80;99.90
45339;DHT22;31071;51.478;5.710;2022-07-10T05:13:46;14.70;99.90
45339;DHT22;31071;51.478;5.710;2022-07-10T05:16:14;14.80;99.90
45339;DHT22;31071;51.478;5.710;2022-07-10T05:18:40;14.80;99.90
45339;DHT22;31071;51.478;5.710;2022-07-10T05:21:06;14.90;99.90
45339;DHT22;31071;51.478;5.710;2022-07-10T05:23:32;14.90;99.90
45339;DHT22;31071;51.478;5.710;2022-07-10T05:25:58;14.90;99.90
45339;DHT22;31071;51.478;5.710;2022-07-10T05:28:23;15.00;99.90
45339;DHT22;31071;51.478;5.710;2022-07-10T05:30:49;15.00;99.90
45339;DHT22;31071;51.478;5.710;2022-07-10T05:33:15;15.10;99.90
45339;DHT22;31071;51.478;5.710;2022-07-10T05:35:41;15.10;99.90
45339;DHT22;31071;51.478;5.710;2022-07-10T05:38:06;15.10;99.90
45339;DHT22;31071;51.478;5.710;2022-07-10T05:40:32;15.10;99.90
45339;DHT22;31071;51.478;5.710;2022-07-10T05:42:57;15.10;99.90
45339;DHT22;31071;51.478;5.710;2022-07-10T05:45:23;15.20;99.90
45339;DHT22;31071;51.478;5.710;2022-07-10T05:47:49;15.10;99.90
45339;DHT22;31071;51.478;5.710;2022-07-10T05:50:14;15.10;99.90
45339;DHT22;31071;51.478;5.710;2022-07-10T05:52:40;15.20;99.90
45339;DHT22;31071;51.478;5.710;2022-07-10T05:55:06;15.30;99.90
45339;DHT22;31071;51.478;5.710;2022-07-10T05:57:33;15.30;99.90
45339;DHT22;31071;51.478;5.710;2022-07-10T06:00:04;15.40;99.90
45339;DHT22;31071;51.478;5.710;2022-07-10T06:02:30;15.50;99.90
45339;DHT22;31071;51.478;5.710;2022-07-10T06:04:56;15.60;99.90
45339;DHT22;31071;51.478;5.710;2022-07-10T06:07:22;15.70;99.90
45339;DHT22;31071;51.478;5.710;2022-07-10T06:09:47;15.70;99.90
45339;DHT22;31071;51.478;5.710;2022-07-10T06:12:13;15.80;99.90
45339;DHT22;31071;51.478;5.710;2022-07-10T06:14:41;15.80;99.90
45339;DHT22;31071;51.478;5.710;2022-07-10T06:17:06;15.90;99.90
45339;DHT22;31071;51.478;5.710;2022-07-10T06:19:32;15.90;99.90
45339;DHT22;31071;51.478;5.710;2022-07-10T06:21:57;16.00;99.90
45339;DHT22;31071;51.478;5.710;2022-07-10T06:24:42;15.80;99.90
45339;DHT22;31071;51.478;5.710;2022-07-10T06:27:07;15.90;99.90
45339;DHT22;31071;51.478;5.710;2022-07-10T06:29:40;15.90;99.90
45339;DHT22;31071;51.478;5.710;2022-07-10T06:32:05;15.90;99.90
45339;DHT22;31071;51.478;5.710;2022-07-10T06:34:31;16.00;99.90
45339;DHT22;31071;51.478;5.710;2022-07-10T06:36:57;16.10;99.90
45339;DHT22;31071;51.478;5.710;2022-07-10T06:39:22;16.30;99.90
45339;DHT22;31071;51.478;5.710;2022-07-10T06:41:48;16.30;99.90
45339;DHT22;31071;51.478;5.710;2022-07-10T06:44:13;16.40;99.90
45339;DHT22;31071;51.478;5.710;2022-07-10T06:46:39;16.50;99.90
45339;DHT22;31071;51.478;5.710;2022-07-10T06:49:04;16.60;99.90
45339;DHT22;31071;51.478;5.710;2022-07-10T06:51:31;16.70;99.90
45339;DHT22;31071;51.478;5.710;2022-07-10T06:53:57;16.70;99.90
45339;DHT22;31071;51.478;5.710;2022-07-10T06:56:23;16.70;99.90
45339;DHT22;31071;51.478;5.710;2022-07-10T06:58:48;16.80;99.90
45339;DHT22;31071;51.478;5.710;2022-07-10T07:01:14;16.90;99.90
45339;DHT22;31071;51.478;5.710;2022-07-10T07:03:39;17.10;99.90
45339;DHT22;31071;51.478;5.710;2022-07-10T07:06:05;17.20;99.90
45339;DHT22;31071;51.478;5.710;2022-07-10T07:08:31;17.40;99.90
45339;DHT22;31071;51.478;5.710;2022-07-10T07:10:56;17.50;99.90
45339;DHT22;31071;51.478;5.710;2022-07-10T07:13:22;17.50;99.90
45339;DHT22;31071;51.478;5.710;2022-07-10T07:15:47;17.40;99.90
45339;DHT22;31071;51.478;5.710;2022-07-10T07:18:24;17.40;99.90
45339;DHT22;31071;51.478;5.710;2022-07-10T07:21:00;17.40;99.90
45339;DHT22;31071;51.478;5.710;2022-07-10T07:23:44;17.50;99.90
45339;DHT22;31071;51.478;5.710;2022-07-10T07:26:10;17.70;99.90
45339;DHT22;31071;51.478;5.710;2022-07-10T07:28:36;17.70;99.90
45339;DHT22;31071;51.478;5.710;2022-07-10T07:31:02;17.70;99.90
45339;DHT22;31071;51.478;5.710;2022-07-10T07:33:28;17.70;99.90
45339;DHT22;31071;51.478;5.710;2022-07-10T07:35:54;17.80;99.90
45339;DHT22;31071;51.478;5.710;2022-07-10T07:38:26;17.80;99.90
45339;DHT22;31071;51.478;5.710;2022-07-10T07:41:01;17.90;99.90
45339;DHT22;31071;51.478;5.710;2022-07-10T07:43:39;18.00;99.90
45339;DHT22;31071;51.478;5.710;2022-07-10T07:46:04;18.00;99.90
45339;DHT22;31071;51.478;5.710;2022-07-10T07:48:30;18.00;99.90
45339;DHT22;31071;51.478;5.710;2022-07-10T07:50:55;18.00;99.90
45339;DHT22;31071;51.478;5.710;2022-07-10T07:53:21;18.00;99.90
45339;DHT22;31071;51.478;5.710;2022-07-10T07:55:56;18.00;99.90
45339;DHT22;31071;51.478;5.710;2022-07-10T07:58:22;17.90;99.90
45339;DHT22;31071;51.478;5.710;2022-07-10T08:00:47;17.70;99.90
45339;DHT22;31071;51.478;5.710;2022-07-10T08:03:13;17.70;99.90
45339;DHT22;31071;51.478;5.710;2022-07-10T08:05:38;17.70;99.90
45339;DHT22;31071;51.478;5.710;2022-07-10T08:08:04;17.60;99.90
45339;DHT22;31071;51.478;5.710;2022-07-10T08:10:33;17.70;99.90
45339;DHT22;31071;51.478;5.710;2022-07-10T08:12:58;17.70;99.90
45339;DHT22;31071;51.478;5.710;2022-07-10T08:15:24;17.70;99.90
45339;DHT22;31071;51.478;5.710;2022-07-10T08:17:51;17.70;99.90
45339;DHT22;31071;51.478;5.710;2022-07-10T08:20:18;17.60;99.90
45339;DHT22;31071;51.478;5.710;2022-07-10T08:22:44;17.50;99.90
45339;DHT22;31071;51.478;5.710;2022-07-10T08:25:10;17.50;99.90
45339;DHT22;31071;51.478;5.710;2022-07-10T08:27:36;17.50;99.90
45339;DHT22;31071;51.478;5.710;2022-07-10T08:30:03;17.60;99.90
45339;DHT22;31071;51.478;5.710;2022-07-10T08:32:28;17.60;99.90
45339;DHT22;31071;51.478;5.710;2022-07-10T08:34:54;17.50;99.90
45339;DHT22;31071;51.478;5.710;2022-07-10T08:37:20;17.50;99.90
45339;DHT22;31071;51.478;5.710;2022-07-10T08:39:46;17.40;99.90
45339;DHT22;31071;51.478;5.710;2022-07-10T08:42:12;17.40;99.90
45339;DHT22;31071;51.478;5.710;2022-07-10T08:44:38;17.50;99.90
45339;DHT22;31071;51.478;5.710;2022-07-10T08:47:04;17.50;99.90
45339;DHT22;31071;51.478;5.710;2022-07-10T08:49:31;17.50;99.90
45339;DHT22;31071;51.478;5.710;2022-07-10T08:54:30;17.60;99.90
45339;DHT22;31071;51.478;5.710;2022-07-10T08:57:00;17.70;99.90
45339;DHT22;31071;51.478;5.710;2022-07-10T08:59:26;17.60;99.90
45339;DHT22;31071;51.478;5.710;2022-07-10T09:01:52;17.60;99.90
45339;DHT22;31071;51.478;5.710;2022-07-10T09:04:23;17.70;99.90
45339;DHT22;31071;51.478;5.710;2022-07-10T09:06:50;17.70;99.90
45339;DHT22;31071;51.478;5.710;2022-07-10T09:09:16;17.60;99.90
45339;DHT22;31071;51.478;5.710;2022-07-10T09:11:42;17.70;99.90
45339;DHT22;31071;51.478;5.710;2022-07-10T09:14:13;17.80;99.90
45339;DHT22;31071;51.478;5.710;2022-07-10T09:16:41;18.00;99.90
45339;DHT22;31071;51.478;5.710;2022-07-10T09:19:24;18.00;99.90
45339;DHT22;31071;51.478;5.710;2022-07-10T09:22:01;18.10;99.90
45339;DHT22;31071;51.478;5.710;2022-07-10T09:24:38;18.10;99.90
45339;DHT22;31071;51.478;5.710;2022-07-10T09:27:04;18.20;99.90
45339;DHT22;31071;51.478;5.710;2022-07-10T09:29:33;18.30;99.90
45339;DHT22;31071;51.478;5.710;2022-07-10T09:32:09;18.50;99.90
45339;DHT22;31071;51.478;5.710;2022-07-10T09:34:47;18.70;99.90
45339;DHT22;31071;51.478;5.710;2022-07-10T09:40:05;18.70;99.90
45339;DHT22;31071;51.478;5.710;2022-07-10T09:42:38;18.50;99.90
45339;DHT22;31071;51.478;5.710;2022-07-10T09:47:56;18.40;99.90
45339;DHT22;31071;51.478;5.710;2022-07-10T09:50:26;18.50;99.90
45339;DHT22;31071;51.478;5.710;2022-07-10T09:53:05;18.50;99.90
45339;DHT22;31071;51.478;5.710;2022-07-10T09:55:32;18.60;99.90
45339;DHT22;31071;51.478;5.710;2022-07-10T09:58:07;18.80;99.90
45339;DHT22;31071;51.478;5.710;2022-07-10T10:00:40;19.00;99.90
45339;DHT22;31071;51.478;5.710;2022-07-10T10:03:08;19.40;99.90
45339;DHT22;31071;51.478;5.710;2022-07-10T10:11:05;20.50;96.90
45339;DHT22;31071;51.478;5.710;2022-07-10T10:13:34;21.10;96.20
45339;DHT22;31071;51.478;5.710;2022-07-10T10:16:01;21.20;95.40
45339;DHT22;31071;51.478;5.710;2022-07-10T10:18:27;21.10;95.20
45339;DHT22;31071;51.478;5.710;2022-07-10T10:20:55;21.00;95.50
45339;DHT22;31071;51.478;5.710;2022-07-10T10:23:23;20.70;96.00
45339;DHT22;31071;51.478;5.710;2022-07-10T10:25:54;20.50;96.30
45339;DHT22;31071;51.478;5.710;2022-07-10T10:28:22;20.10;96.80
45339;DHT22;31071;51.478;5.710;2022-07-10T10:30:56;19.80;97.40
45339;DHT22;31071;51.478;5.710;2022-07-10T10:36:01;19.80;98.20
45339;DHT22;31071;51.478;5.710;2022-07-10T10:49:21;19.70;97.90
45339;DHT22;31071;51.478;5.710;2022-07-10T10:52:01;19.60;98.40
45339;DHT22;31071;51.478;5.710;2022-07-10T10:54:29;19.40;99.10
45339;DHT22;31071;51.478;5.710;2022-07-10T10:57:15;19.80;98.80
45339;DHT22;31071;51.478;5.710;2022-07-10T10:59:48;20.50;97.10
45339;DHT22;31071;51.478;5.710;2022-07-10T11:07:55;21.70;94.20
45339;DHT22;31071;51.478;5.710;2022-07-10T11:10:30;22.20;93.60
45339;DHT22;31071;51.478;5.710;2022-07-10T11:13:04;22.10;93.60
45339;DHT22;31071;51.478;5.710;2022-07-10T11:15:32;21.80;93.60
45339;DHT22;31071;51.478;5.710;2022-07-10T11:18:08;21.90;93.20
45339;DHT22;31071;51.478;5.710;2022-07-10T11:20:41;21.80;93.10
45339;DHT22;31071;51.478;5.710;2022-07-10T11:26:10;22.50;92.30
45339;DHT22;31071;51.478;5.710;2022-07-10T11:31:13;23.00;91.10
45339;DHT22;31071;51.478;5.710;2022-07-10T11:33:43;23.00;91.00
45339;DHT22;31071;51.478;5.710;2022-07-10T11:36:15;23.10;90.80
45339;DHT22;31071;51.478;5.710;2022-07-10T11:38:43;23.00;90.50
45339;DHT22;31071;51.478;5.710;2022-07-10T11:41:17;22.70;90.80
45339;DHT22;31071;51.478;5.710;2022-07-10T11:43:47;22.50;91.40
45339;DHT22;31071;51.478;5.710;2022-07-10T11:46:13;22.60;91.10
45339;DHT22;31071;51.478;5.710;2022-07-10T11:48:40;22.80;91.50
45339;DHT22;31071;51.478;5.710;2022-07-10T11:51:16;23.00;91.10
45339;DHT22;31071;51.478;5.710;2022-07-10T11:53:53;22.40;91.90
45339;DHT22;31071;51.478;5.710;2022-07-10T11:56:19;22.70;90.90
45339;DHT22;31071;51.478;5.710;2022-07-10T11:58:54;22.80;91.40
45339;DHT22;31071;51.478;5.710;2022-07-10T12:01:19;23.20;90.10
45339;DHT22;31071;51.478;5.710;2022-07-10T12:03:48;23.40;90.00
45339;DHT22;31071;51.478;5.710;2022-07-10T12:06:18;23.40;89.10
45339;DHT22;31071;51.478;5.710;2022-07-10T12:08:46;23.90;88.30
45339;DHT22;31071;51.478;5.710;2022-07-10T12:11:16;24.40;85.50
45339;DHT22;31071;51.478;5.710;2022-07-10T12:13:48;24.00;86.70
45339;DHT22;31071;51.478;5.710;2022-07-10T12:16:15;23.50;87.30
45339;DHT22;31071;51.478;5.710;2022-07-10T12:18:46;23.20;89.50
45339;DHT22;31071;51.478;5.710;2022-07-10T12:21:13;22.80;89.30
45339;DHT22;31071;51.478;5.710;2022-07-10T12:23:39;22.60;90.50
45339;DHT22;31071;51.478;5.710;2022-07-10T12:26:09;22.50;90.70
45339;DHT22;31071;51.478;5.710;2022-07-10T12:29:00;22.20;91.30
45339;DHT22;31071;51.478;5.710;2022-07-10T12:31:28;21.80;91.90
45339;DHT22;31071;51.478;5.710;2022-07-10T12:33:56;21.60;92.00
45339;DHT22;31071;51.478;5.710;2022-07-10T12:36:24;21.30;92.60
45339;DHT22;31071;51.478;5.710;2022-07-10T12:38:54;21.30;93.10
45339;DHT22;31071;51.478;5.710;2022-07-10T12:41:21;21.40;93.10
45339;DHT22;31071;51.478;5.710;2022-07-10T12:43:50;21.50;92.90
45339;DHT22;31071;51.478;5.710;2022-07-10T12:46:23;21.80;92.40
45339;DHT22;31071;51.478;5.710;2022-07-10T12:49:07;22.60;91.60
45339;DHT22;31071;51.478;5.710;2022-07-10T12:51:41;23.60;89.80
45339;DHT22;31071;51.478;5.710;2022-07-10T12:54:07;24.80;86.20
45339;DHT22;31071;51.478;5.710;2022-07-10T12:56:36;25.80;82.70
45339;DHT22;31071;51.478;5.710;2022-07-10T12:59:22;26.40;78.50
45339;DHT22;31071;51.478;5.710;2022-07-10T13:01:48;25.80;78.70
45339;DHT22;31071;51.478;5.710;2022-07-10T13:04:14;24.70;81.20
45339;DHT22;31071;51.478;5.710;2022-07-10T13:06:41;23.90;85.10
45339;DHT22;31071;51.478;5.710;2022-07-10T13:09:20;23.70;84.50
45339;DHT22;31071;51.478;5.710;2022-07-10T13:11:49;23.50;84.50
45339;DHT22;31071;51.478;5.710;2022-07-10T13:14:15;23.20;87.10
45339;DHT22;31071;51.478;5.710;2022-07-10T13:16:41;23.10;89.00
45339;DHT22;31071;51.478;5.710;2022-07-10T13:19:07;23.30;87.10
45339;DHT22;31071;51.478;5.710;2022-07-10T13:21:32;23.30;86.40
45339;DHT22;31071;51.478;5.710;2022-07-10T13:23:58;23.00;86.90
45339;DHT22;31071;51.478;5.710;2022-07-10T13:26:23;23.60;86.30
45339;DHT22;31071;51.478;5.710;2022-07-10T13:28:49;23.70;86.10
45339;DHT22;31071;51.478;5.710;2022-07-10T13:31:14;23.90;84.90
45339;DHT22;31071;51.478;5.710;2022-07-10T13:33:40;24.00;83.90
45339;DHT22;31071;51.478;5.710;2022-07-10T13:36:06;24.00;84.70
45339;DHT22;31071;51.478;5.710;2022-07-10T13:38:31;23.70;85.40
45339;DHT22;31071;51.478;5.710;2022-07-10T13:40:59;23.50;86.70
45339;DHT22;31071;51.478;5.710;2022-07-10T13:43:24;23.30;86.50
45339;DHT22;31071;51.478;5.710;2022-07-10T13:45:57;23.20;87.00
45339;DHT22;31071;51.478;5.710;2022-07-10T13:48:23;23.00;88.30
45339;DHT22;31071;51.478;5.710;2022-07-10T13:50:49;23.20;87.90
45339;DHT22;31071;51.478;5.710;2022-07-10T13:53:16;23.20;86.90
45339;DHT22;31071;51.478;5.710;2022-07-10T13:55:42;23.20;87.50
45339;DHT22;31071;51.478;5.710;2022-07-10T13:58:09;23.50;85.40
45339;DHT22;31071;51.478;5.710;2022-07-10T14:00:35;23.70;85.60
45339;DHT22;31071;51.478;5.710;2022-07-10T14:03:01;24.00;84.60
45339;DHT22;31071;51.478;5.710;2022-07-10T14:05:27;24.20;84.10
45339;DHT22;31071;51.478;5.710;2022-07-10T14:07:53;24.60;82.60
45339;DHT22;31071;51.478;5.710;2022-07-10T14:10:18;24.50;81.70
45339;DHT22;31071;51.478;5.710;2022-07-10T14:12:44;24.40;83.50
45339;DHT22;31071;51.478;5.710;2022-07-10T14:15:10;24.70;82.90
45339;DHT22;31071;51.478;5.710;2022-07-10T14:17:36;24.90;81.20
45339;DHT22;31071;51.478;5.710;2022-07-10T14:20:05;24.40;81.00
45339;DHT22;31071;51.478;5.710;2022-07-10T14:22:32;24.00;82.80
45339;DHT22;31071;51.478;5.710;2022-07-10T14:24:58;23.70;84.50
45339;DHT22;31071;51.478;5.710;2022-07-10T14:27:25;23.70;84.00
45339;DHT22;31071;51.478;5.710;2022-07-10T14:30:01;23.70;84.30
45339;DHT22;31071;51.478;5.710;2022-07-10T14:32:26;23.60;84.50
45339;DHT22;31071;51.478;5.710;2022-07-10T14:34:52;24.00;82.90
45339;DHT22;31071;51.478;5.710;2022-07-10T14:37:18;24.30;81.30
45339;DHT22;31071;51.478;5.710;2022-07-10T14:39:51;24.40;81.10
45339;DHT22;31071;51.478;5.710;2022-07-10T14:42:17;24.50;81.80
45339;DHT22;31071;51.478;5.710;2022-07-10T14:44:45;24.30;80.10
45339;DHT22;31071;51.478;5.710;2022-07-10T14:47:14;23.90;81.30
45339;DHT22;31071;51.478;5.710;2022-07-10T14:49:40;24.20;81.30
45339;DHT22;31071;51.478;5.710;2022-07-10T14:52:09;24.70;80.30
45339;DHT22;31071;51.478;5.710;2022-07-10T14:54:43;24.70;78.80
45339;DHT22;31071;51.478;5.710;2022-07-10T14:57:08;24.10;81.60
45339;DHT22;31071;51.478;5.710;2022-07-10T14:59:34;24.00;81.40
45339;DHT22;31071;51.478;5.710;2022-07-10T15:01:59;23.70;82.60
45339;DHT22;31071;51.478;5.710;2022-07-10T15:04:25;23.70;83.60
45339;DHT22;31071;51.478;5.710;2022-07-10T15:06:50;24.00;82.40
45339;DHT22;31071;51.478;5.710;2022-07-10T15:09:16;23.80;81.00
45339;DHT22;31071;51.478;5.710;2022-07-10T15:11:42;23.60;82.40
45339;DHT22;31071;51.478;5.710;2022-07-10T15:14:07;23.40;82.10
45339;DHT22;31071;51.478;5.710;2022-07-10T15:16:33;23.20;83.30
45339;DHT22;31071;51.478;5.710;2022-07-10T15:19:03;23.20;84.30
45339;DHT22;31071;51.478;5.710;2022-07-10T15:21:29;23.20;84.70
45339;DHT22;31071;51.478;5.710;2022-07-10T15:23:55;23.10;85.90
45339;DHT22;31071;51.478;5.710;2022-07-10T15:26:21;23.00;84.40
45339;DHT22;31071;51.478;5.710;2022-07-10T15:28:47;22.60;85.20
45339;DHT22;31071;51.478;5.710;2022-07-10T15:31:12;22.50;86.50
45339;DHT22;31071;51.478;5.710;2022-07-10T15:33:38;22.70;85.80
45339;DHT22;31071;51.478;5.710;2022-07-10T15:36:08;23.00;85.00
45339;DHT22;31071;51.478;5.710;2022-07-10T15:38:34;23.20;83.90
45339;DHT22;31071;51.478;5.710;2022-07-10T15:41:00;23.10;83.90
45339;DHT22;31071;51.478;5.710;2022-07-10T15:43:32;23.30;83.70
45339;DHT22;31071;51.478;5.710;2022-07-10T15:45:57;23.40;83.70
45339;DHT22;31071;51.478;5.710;2022-07-10T15:48:24;23.70;81.10
45339;DHT22;31071;51.478;5.710;2022-07-10T15:50:55;23.50;80.80
45339;DHT22;31071;51.478;5.710;2022-07-10T15:53:24;23.30;81.50
45339;DHT22;31071;51.478;5.710;2022-07-10T15:55:57;23.20;82.80
45339;DHT22;31071;51.478;5.710;2022-07-10T15:58:22;23.10;82.90
45339;DHT22;31071;51.478;5.710;2022-07-10T16:00:48;23.00;83.30
45339;DHT22;31071;51.478;5.710;2022-07-10T16:03:22;22.80;84.50
45339;DHT22;31071;51.478;5.710;2022-07-10T16:05:48;22.80;85.00
45339;DHT22;31071;51.478;5.710;2022-07-10T16:08:16;22.80;83.90
45339;DHT22;31071;51.478;5.710;2022-07-10T16:10:46;22.90;84.00